BWA264 TQPF-TTPP
Flight info
| Callsign | BWA264 |
|---|---|
| Flight time | 1h 12m |
| Altitude | 27000 |
| Route | PPR UA312 FOF UA324 SV |
| Aircraft | B738/M-SDE2E3FGHIRWXY/LB1 |
Departure
| Time | 2026-04-20 23:46 |
|---|---|
| Airport | Clayton J. Lloyd International Airport (TQPF) |
Arrival
| Time | 2026-04-21 00:58 |
|---|---|
| Airport | Piarco International Airport (TTPP) |
| Time | Latitude | Longitude | Altitude | Speed | Heading |
|---|---|---|---|---|---|
| 2026-04-20 23:29 | 18.20561 | -63.05132 | 106 ft | 0 kts | 314° |
| 2026-04-20 23:42 | 18.20577 | -63.05160 | 108 ft | 7 kts | 282° |
| 2026-04-20 23:42 | 18.20570 | -63.05166 | 108 ft | 1 kts | 169° |
| 2026-04-20 23:42 | 18.20519 | -63.05166 | 107 ft | 13 kts | 184° |
| 2026-04-20 23:42 | 18.20476 | -63.05215 | 108 ft | 9 kts | 271° |
| 2026-04-20 23:43 | 18.20479 | -63.05270 | 110 ft | 5 kts | 267° |
| 2026-04-20 23:43 | 18.20476 | -63.05312 | 112 ft | 8 kts | 267° |
| 2026-04-20 23:43 | 18.20477 | -63.05419 | 114 ft | 20 kts | 271° |
| 2026-04-20 23:43 | 18.20481 | -63.05593 | 116 ft | 24 kts | 271° |
| 2026-04-20 23:44 | 18.20484 | -63.05771 | 114 ft | 24 kts | 270° |
| 2026-04-20 23:44 | 18.20485 | -63.05949 | 113 ft | 24 kts | 270° |
| 2026-04-20 23:44 | 18.20485 | -63.06115 | 113 ft | 16 kts | 262° |
| 2026-04-20 23:44 | 18.20480 | -63.06166 | 112 ft | 2 kts | 359° |
| 2026-04-20 23:45 | 18.20488 | -63.06144 | 113 ft | 3 kts | 89° |
| 2026-04-20 23:45 | 18.20487 | -63.06116 | 113 ft | 4 kts | 90° |
| 2026-04-20 23:45 | 18.20484 | -63.05908 | 113 ft | 70 kts | 90° |
| 2026-04-20 23:45 | 18.20477 | -63.05080 | 103 ft | 152 kts | 90° |
| 2026-04-20 23:46 | 18.20439 | -63.03947 | 941 ft | 154 kts | 92° |
| 2026-04-20 23:46 | 18.20405 | -63.02830 | 1785 ft | 163 kts | 89° |
| 2026-04-20 23:46 | 18.20404 | -63.01609 | 2433 ft | 177 kts | 91° |
| 2026-04-20 23:46 | 18.20190 | -63.00210 | 2711 ft | 214 kts | 105° |
| 2026-04-20 23:47 | 18.19509 | -62.98768 | 3574 ft | 226 kts | 124° |
| 2026-04-20 23:47 | 18.18345 | -62.97591 | 4293 ft | 249 kts | 140° |
| 2026-04-20 23:47 | 18.16796 | -62.96648 | 5096 ft | 268 kts | 152° |
| 2026-04-20 23:47 | 18.15074 | -62.95858 | 6058 ft | 277 kts | 154° |
| 2026-04-20 23:48 | 18.13283 | -62.95069 | 7079 ft | 282 kts | 154° |
| 2026-04-20 23:48 | 18.11479 | -62.94265 | 8030 ft | 288 kts | 155° |
| 2026-04-20 23:48 | 18.09615 | -62.93420 | 8960 ft | 295 kts | 155° |
| 2026-04-20 23:48 | 18.07735 | -62.92553 | 9892 ft | 300 kts | 154° |
| 2026-04-20 23:49 | 18.05821 | -62.91658 | 10640 ft | 312 kts | 154° |
| 2026-04-20 23:49 | 18.03772 | -62.90690 | 11269 ft | 328 kts | 154° |
| 2026-04-20 23:49 | 18.01648 | -62.89674 | 11855 ft | 344 kts | 154° |
| 2026-04-20 23:49 | 17.99419 | -62.88595 | 12390 ft | 361 kts | 154° |
| 2026-04-20 23:50 | 17.97120 | -62.87476 | 13086 ft | 371 kts | 154° |
| 2026-04-20 23:50 | 17.94769 | -62.86321 | 13933 ft | 375 kts | 153° |
| 2026-04-20 23:50 | 17.92526 | -62.84862 | 14657 ft | 381 kts | 141° |
| 2026-04-20 23:50 | 17.90631 | -62.82943 | 15413 ft | 386 kts | 129° |
| 2026-04-20 23:51 | 17.88917 | -62.80757 | 16140 ft | 391 kts | 127° |
| 2026-04-20 23:51 | 17.87124 | -62.78594 | 16845 ft | 397 kts | 131° |
| 2026-04-20 23:51 | 17.85128 | -62.76540 | 17556 ft | 403 kts | 136° |
| 2026-04-20 23:51 | 17.82969 | -62.74615 | 18238 ft | 409 kts | 140° |
| 2026-04-20 23:52 | 17.80720 | -62.72787 | 18915 ft | 413 kts | 142° |
| 2026-04-20 23:52 | 17.78414 | -62.70995 | 19511 ft | 419 kts | 143° |
| 2026-04-20 23:52 | 17.76029 | -62.69170 | 20141 ft | 423 kts | 143° |
| 2026-04-20 23:52 | 17.73658 | -62.67355 | 20739 ft | 428 kts | 144° |
| 2026-04-20 23:53 | 17.71248 | -62.65505 | 21314 ft | 432 kts | 144° |
| 2026-04-20 23:53 | 17.68796 | -62.63615 | 21863 ft | 437 kts | 144° |
| 2026-04-20 23:53 | 17.66356 | -62.61729 | 22432 ft | 441 kts | 144° |
| 2026-04-20 23:53 | 17.63867 | -62.59802 | 23023 ft | 445 kts | 144° |
| 2026-04-20 23:54 | 17.61382 | -62.57875 | 23528 ft | 450 kts | 144° |
| 2026-04-20 23:54 | 17.58833 | -62.55896 | 24076 ft | 455 kts | 144° |
| 2026-04-20 23:54 | 17.56293 | -62.53925 | 24609 ft | 459 kts | 144° |
| 2026-04-20 23:54 | 17.53714 | -62.51921 | 25271 ft | 460 kts | 144° |
| 2026-04-20 23:55 | 17.51148 | -62.49928 | 26007 ft | 458 kts | 144° |
| 2026-04-20 23:55 | 17.48585 | -62.47938 | 26701 ft | 458 kts | 144° |
| 2026-04-20 23:55 | 17.46008 | -62.45938 | 26985 ft | 465 kts | 144° |
| 2026-04-20 23:55 | 17.43379 | -62.43899 | 27015 ft | 477 kts | 144° |
| 2026-04-20 23:56 | 17.40684 | -62.41810 | 27016 ft | 490 kts | 144° |
| 2026-04-20 23:56 | 17.37927 | -62.39675 | 27014 ft | 500 kts | 144° |
| 2026-04-20 23:56 | 17.35118 | -62.37499 | 27013 ft | 502 kts | 144° |
| 2026-04-20 23:56 | 17.32294 | -62.35310 | 27014 ft | 502 kts | 144° |
| 2026-04-20 23:57 | 17.29485 | -62.33133 | 27012 ft | 500 kts | 144° |
| 2026-04-20 23:57 | 17.26688 | -62.30965 | 27013 ft | 500 kts | 144° |
| 2026-04-20 23:57 | 17.23904 | -62.28807 | 27010 ft | 499 kts | 144° |
| 2026-04-20 23:57 | 17.21106 | -62.26641 | 27014 ft | 500 kts | 144° |
| 2026-04-20 23:58 | 17.18300 | -62.24470 | 27012 ft | 499 kts | 144° |
| 2026-04-20 23:58 | 17.15528 | -62.22327 | 27011 ft | 501 kts | 144° |
| 2026-04-20 23:58 | 17.12699 | -62.20140 | 27011 ft | 500 kts | 144° |
| 2026-04-20 23:58 | 17.09900 | -62.17978 | 27009 ft | 501 kts | 144° |
| 2026-04-20 23:59 | 17.07095 | -62.15812 | 27010 ft | 503 kts | 144° |
| 2026-04-20 23:59 | 17.04274 | -62.13635 | 27010 ft | 502 kts | 144° |
| 2026-04-20 23:59 | 17.01482 | -62.11481 | 27012 ft | 502 kts | 144° |
| 2026-04-20 23:59 | 16.98676 | -62.09316 | 27012 ft | 502 kts | 144° |
| 2026-04-21 00:00 | 16.95861 | -62.07146 | 27005 ft | 501 kts | 144° |
| 2026-04-21 00:00 | 16.93034 | -62.04967 | 27007 ft | 501 kts | 144° |
| 2026-04-21 00:00 | 16.90243 | -62.02817 | 27009 ft | 500 kts | 144° |
| 2026-04-21 00:00 | 16.87457 | -62.00671 | 27008 ft | 500 kts | 144° |
| 2026-04-21 00:01 | 16.84648 | -61.98508 | 27008 ft | 500 kts | 144° |
| 2026-04-21 00:01 | 16.81859 | -61.96361 | 27007 ft | 500 kts | 144° |
| 2026-04-21 00:01 | 16.79057 | -61.94206 | 27005 ft | 500 kts | 144° |
| 2026-04-21 00:01 | 16.76257 | -61.92053 | 27006 ft | 499 kts | 144° |
| 2026-04-21 00:02 | 16.73443 | -61.89891 | 27006 ft | 500 kts | 144° |
| 2026-04-21 00:02 | 16.70645 | -61.87741 | 27007 ft | 500 kts | 144° |
| 2026-04-21 00:02 | 16.67850 | -61.85594 | 27013 ft | 498 kts | 144° |
| 2026-04-21 00:02 | 16.65044 | -61.83440 | 27016 ft | 499 kts | 144° |
| 2026-04-21 00:03 | 16.62283 | -61.81320 | 27019 ft | 498 kts | 144° |
| 2026-04-21 00:03 | 16.59474 | -61.79166 | 27019 ft | 498 kts | 144° |
| 2026-04-21 00:03 | 16.56663 | -61.77010 | 27021 ft | 498 kts | 144° |
| 2026-04-21 00:03 | 16.53897 | -61.74889 | 27020 ft | 498 kts | 144° |
| 2026-04-21 00:04 | 16.51102 | -61.72747 | 27019 ft | 498 kts | 144° |
| 2026-04-21 00:04 | 16.48311 | -61.70608 | 27019 ft | 497 kts | 144° |
| 2026-04-21 00:04 | 16.45527 | -61.68476 | 27021 ft | 497 kts | 144° |
| 2026-04-21 00:04 | 16.42721 | -61.66327 | 27028 ft | 497 kts | 144° |
| 2026-04-21 00:05 | 16.39943 | -61.64202 | 27028 ft | 497 kts | 144° |
| 2026-04-21 00:05 | 16.37147 | -61.62064 | 27029 ft | 497 kts | 144° |
| 2026-04-21 00:05 | 16.34379 | -61.59947 | 27027 ft | 496 kts | 144° |
| 2026-04-21 00:05 | 16.31587 | -61.57813 | 27029 ft | 496 kts | 145° |
| 2026-04-21 00:06 | 16.28692 | -61.55803 | 27023 ft | 494 kts | 150° |
| 2026-04-21 00:06 | 16.25693 | -61.54120 | 27024 ft | 493 kts | 156° |
| 2026-04-21 00:06 | 16.22551 | -61.52715 | 27021 ft | 491 kts | 161° |
| 2026-04-21 00:06 | 16.19290 | -61.51524 | 27021 ft | 490 kts | 164° |
| 2026-04-21 00:07 | 16.16035 | -61.50478 | 27012 ft | 490 kts | 165° |
| 2026-04-21 00:07 | 16.12745 | -61.49489 | 27010 ft | 490 kts | 166° |
| 2026-04-21 00:07 | 16.09483 | -61.48531 | 27003 ft | 490 kts | 166° |
| 2026-04-21 00:07 | 16.06179 | -61.47562 | 26994 ft | 491 kts | 166° |
| 2026-04-21 00:08 | 16.02904 | -61.46592 | 26991 ft | 490 kts | 166° |
| 2026-04-21 00:08 | 15.99607 | -61.45605 | 26987 ft | 490 kts | 166° |
| 2026-04-21 00:08 | 15.96363 | -61.44623 | 26987 ft | 491 kts | 166° |
| 2026-04-21 00:08 | 15.93059 | -61.43614 | 26988 ft | 492 kts | 165° |
| 2026-04-21 00:09 | 15.89795 | -61.42610 | 26987 ft | 491 kts | 165° |
| 2026-04-21 00:09 | 15.86493 | -61.41591 | 26986 ft | 490 kts | 165° |
| 2026-04-21 00:09 | 15.83248 | -61.40587 | 26988 ft | 490 kts | 165° |
| 2026-04-21 00:09 | 15.79930 | -61.39559 | 26989 ft | 491 kts | 165° |
| 2026-04-21 00:10 | 15.76666 | -61.38547 | 26992 ft | 490 kts | 165° |
| 2026-04-21 00:10 | 15.73426 | -61.37542 | 26992 ft | 490 kts | 165° |
| 2026-04-21 00:10 | 15.70124 | -61.36517 | 26992 ft | 489 kts | 165° |
| 2026-04-21 00:10 | 15.66888 | -61.35514 | 26990 ft | 489 kts | 165° |
| 2026-04-21 00:11 | 15.63595 | -61.34494 | 26994 ft | 489 kts | 166° |
| 2026-04-21 00:11 | 15.60339 | -61.33486 | 26997 ft | 489 kts | 166° |
| 2026-04-21 00:11 | 15.57085 | -61.32480 | 26998 ft | 488 kts | 166° |
| 2026-04-21 00:11 | 15.53790 | -61.31460 | 26996 ft | 488 kts | 166° |
| 2026-04-21 00:12 | 15.50536 | -61.30454 | 26998 ft | 490 kts | 166° |
| 2026-04-21 00:12 | 15.47270 | -61.29444 | 26996 ft | 488 kts | 166° |
| 2026-04-21 00:12 | 15.44007 | -61.28435 | 26993 ft | 488 kts | 166° |
| 2026-04-21 00:12 | 15.40734 | -61.27425 | 26994 ft | 488 kts | 166° |
| 2026-04-21 00:13 | 15.37475 | -61.26419 | 26995 ft | 488 kts | 166° |
| 2026-04-21 00:13 | 15.34228 | -61.25417 | 26996 ft | 488 kts | 166° |
| 2026-04-21 00:13 | 15.30967 | -61.24410 | 26990 ft | 487 kts | 166° |
| 2026-04-21 00:13 | 15.27687 | -61.23398 | 26997 ft | 487 kts | 166° |
| 2026-04-21 00:14 | 15.24429 | -61.22393 | 26994 ft | 486 kts | 166° |
| 2026-04-21 00:14 | 15.21209 | -61.21401 | 26993 ft | 486 kts | 166° |
| 2026-04-21 00:14 | 15.17954 | -61.20398 | 26990 ft | 486 kts | 166° |
| 2026-04-21 00:14 | 15.14712 | -61.19398 | 26989 ft | 486 kts | 166° |
| 2026-04-21 00:15 | 15.11447 | -61.18393 | 26991 ft | 486 kts | 166° |
| 2026-04-21 00:15 | 15.08197 | -61.17392 | 26987 ft | 485 kts | 166° |
| 2026-04-21 00:15 | 15.04975 | -61.16401 | 26988 ft | 485 kts | 166° |
| 2026-04-21 00:15 | 15.01723 | -61.15400 | 26983 ft | 485 kts | 166° |
| 2026-04-21 00:16 | 14.98480 | -61.14402 | 26986 ft | 486 kts | 166° |
| 2026-04-21 00:16 | 14.95253 | -61.13410 | 26987 ft | 486 kts | 166° |
| 2026-04-21 00:16 | 14.91979 | -61.12403 | 26991 ft | 486 kts | 166° |
| 2026-04-21 00:16 | 14.88735 | -61.11406 | 26982 ft | 485 kts | 166° |
| 2026-04-21 00:17 | 14.85516 | -61.10417 | 26989 ft | 485 kts | 166° |
| 2026-04-21 00:17 | 14.82246 | -61.09413 | 26993 ft | 485 kts | 166° |
| 2026-04-21 00:17 | 14.79030 | -61.08425 | 26991 ft | 484 kts | 166° |
| 2026-04-21 00:17 | 14.75786 | -61.07429 | 26992 ft | 483 kts | 166° |
| 2026-04-21 00:18 | 14.72565 | -61.06440 | 26992 ft | 484 kts | 166° |
| 2026-04-21 00:18 | 14.69329 | -61.05448 | 26996 ft | 484 kts | 166° |
| 2026-04-21 00:18 | 14.66071 | -61.04449 | 26991 ft | 484 kts | 166° |
| 2026-04-21 00:18 | 14.62815 | -61.03468 | 26994 ft | 485 kts | 167° |
| 2026-04-21 00:19 | 14.59550 | -61.02602 | 26999 ft | 482 kts | 171° |
| 2026-04-21 00:19 | 14.56240 | -61.02017 | 26989 ft | 479 kts | 176° |
| 2026-04-21 00:19 | 14.52944 | -61.01683 | 26992 ft | 478 kts | 179° |
| 2026-04-21 00:19 | 14.49615 | -61.01482 | 26990 ft | 478 kts | 180° |
| 2026-04-21 00:20 | 14.46258 | -61.01341 | 26985 ft | 477 kts | 181° |
| 2026-04-21 00:20 | 14.42958 | -61.01221 | 26990 ft | 476 kts | 181° |
| 2026-04-21 00:20 | 14.39612 | -61.01098 | 26991 ft | 477 kts | 181° |
| 2026-04-21 00:20 | 14.36332 | -61.00969 | 26986 ft | 477 kts | 181° |
| 2026-04-21 00:21 | 14.32982 | -61.00825 | 26986 ft | 476 kts | 181° |
| 2026-04-21 00:21 | 14.29653 | -61.00671 | 26991 ft | 476 kts | 181° |
| 2026-04-21 00:21 | 14.26344 | -61.00511 | 26985 ft | 475 kts | 181° |
| 2026-04-21 00:21 | 14.23066 | -61.00347 | 26983 ft | 475 kts | 180° |
| 2026-04-21 00:22 | 14.19742 | -61.00176 | 26992 ft | 475 kts | 180° |
| 2026-04-21 00:22 | 14.16433 | -61.00004 | 26986 ft | 476 kts | 180° |
| 2026-04-21 00:22 | 14.13126 | -60.99829 | 26992 ft | 476 kts | 180° |
| 2026-04-21 00:22 | 14.09812 | -60.99653 | 26996 ft | 476 kts | 180° |
| 2026-04-21 00:23 | 14.06466 | -60.99474 | 26999 ft | 476 kts | 180° |
| 2026-04-21 00:23 | 14.03163 | -60.99298 | 27002 ft | 477 kts | 180° |
| 2026-04-21 00:23 | 13.99843 | -60.99120 | 27002 ft | 476 kts | 180° |
| 2026-04-21 00:23 | 13.96529 | -60.98943 | 27002 ft | 475 kts | 180° |
| 2026-04-21 00:24 | 13.93208 | -60.98766 | 26993 ft | 476 kts | 181° |
| 2026-04-21 00:24 | 13.89922 | -60.98592 | 27003 ft | 475 kts | 180° |
| 2026-04-21 00:24 | 13.86582 | -60.98414 | 26991 ft | 475 kts | 181° |
| 2026-04-21 00:24 | 13.83284 | -60.98239 | 26992 ft | 476 kts | 180° |
| 2026-04-21 00:25 | 13.79968 | -60.98064 | 26985 ft | 475 kts | 180° |
| 2026-04-21 00:25 | 13.76658 | -60.97975 | 26990 ft | 473 kts | 184° |
| 2026-04-21 00:25 | 13.73392 | -60.98208 | 26978 ft | 468 kts | 192° |
| 2026-04-21 00:25 | 13.70223 | -60.98967 | 26986 ft | 464 kts | 200° |
| 2026-04-21 00:26 | 13.67189 | -61.00035 | 26983 ft | 463 kts | 204° |
| 2026-04-21 00:26 | 13.64191 | -61.01252 | 26983 ft | 461 kts | 206° |
| 2026-04-21 00:26 | 13.61209 | -61.02534 | 26981 ft | 460 kts | 206° |
| 2026-04-21 00:26 | 13.58273 | -61.03817 | 26976 ft | 459 kts | 207° |
| 2026-04-21 00:27 | 13.55322 | -61.05108 | 26978 ft | 461 kts | 207° |
| 2026-04-21 00:27 | 13.52370 | -61.06393 | 26981 ft | 460 kts | 206° |
| 2026-04-21 00:27 | 13.49387 | -61.07682 | 26976 ft | 461 kts | 206° |
| 2026-04-21 00:27 | 13.46420 | -61.08955 | 26977 ft | 461 kts | 206° |
| 2026-04-21 00:28 | 13.43455 | -61.10217 | 26977 ft | 461 kts | 206° |
| 2026-04-21 00:28 | 13.40513 | -61.11464 | 26981 ft | 459 kts | 206° |
| 2026-04-21 00:28 | 13.37533 | -61.12722 | 26981 ft | 459 kts | 206° |
| 2026-04-21 00:28 | 13.34590 | -61.13963 | 26988 ft | 460 kts | 206° |
| 2026-04-21 00:29 | 13.31623 | -61.15211 | 26995 ft | 460 kts | 206° |
| 2026-04-21 00:29 | 13.28654 | -61.16457 | 26994 ft | 459 kts | 206° |
| 2026-04-21 00:29 | 13.25697 | -61.17697 | 27002 ft | 459 kts | 206° |
| 2026-04-21 00:29 | 13.22737 | -61.18938 | 27004 ft | 459 kts | 206° |
| 2026-04-21 00:30 | 13.19782 | -61.20177 | 27006 ft | 459 kts | 206° |
| 2026-04-21 00:30 | 13.16830 | -61.21415 | 26999 ft | 458 kts | 206° |
| 2026-04-21 00:30 | 13.13867 | -61.22657 | 27006 ft | 458 kts | 206° |
| 2026-04-21 00:30 | 13.10903 | -61.23902 | 27066 ft | 457 kts | 206° |
| 2026-04-21 00:31 | 13.07974 | -61.25140 | 27200 ft | 456 kts | 206° |
| 2026-04-21 00:31 | 13.05026 | -61.26397 | 27112 ft | 456 kts | 206° |
| 2026-04-21 00:31 | 13.02115 | -61.27657 | 27084 ft | 455 kts | 207° |
| 2026-04-21 00:31 | 12.99121 | -61.28768 | 27006 ft | 459 kts | 199° |
| 2026-04-21 00:32 | 12.95955 | -61.29381 | 26992 ft | 464 kts | 191° |
| 2026-04-21 00:32 | 12.92715 | -61.29682 | 26985 ft | 467 kts | 187° |
| 2026-04-21 00:32 | 12.89468 | -61.29855 | 26985 ft | 467 kts | 186° |
| 2026-04-21 00:32 | 12.86181 | -61.30008 | 26982 ft | 467 kts | 186° |
| 2026-04-21 00:33 | 12.82923 | -61.30186 | 26981 ft | 467 kts | 187° |
| 2026-04-21 00:33 | 12.79697 | -61.30403 | 26981 ft | 466 kts | 188° |
| 2026-04-21 00:33 | 12.76444 | -61.30662 | 26980 ft | 465 kts | 188° |
| 2026-04-21 00:33 | 12.73202 | -61.30952 | 26980 ft | 466 kts | 189° |
| 2026-04-21 00:34 | 12.70003 | -61.31260 | 26978 ft | 466 kts | 189° |
| 2026-04-21 00:34 | 12.66750 | -61.31587 | 26977 ft | 465 kts | 189° |
| 2026-04-21 00:34 | 12.63516 | -61.31921 | 26979 ft | 466 kts | 189° |
| 2026-04-21 00:34 | 12.60274 | -61.32261 | 26978 ft | 465 kts | 189° |
| 2026-04-21 00:35 | 12.57037 | -61.32602 | 26978 ft | 466 kts | 189° |
| 2026-04-21 00:35 | 12.53840 | -61.32941 | 26978 ft | 466 kts | 189° |
| 2026-04-21 00:35 | 12.50605 | -61.33284 | 26978 ft | 466 kts | 189° |
| 2026-04-21 00:35 | 12.47340 | -61.33629 | 26976 ft | 465 kts | 189° |
| 2026-04-21 00:36 | 12.44137 | -61.33967 | 26975 ft | 465 kts | 190° |
| 2026-04-21 00:36 | 12.40879 | -61.34312 | 26975 ft | 466 kts | 189° |
| 2026-04-21 00:36 | 12.37676 | -61.34651 | 26975 ft | 466 kts | 189° |
| 2026-04-21 00:36 | 12.34446 | -61.34992 | 26973 ft | 465 kts | 190° |
| 2026-04-21 00:37 | 12.31216 | -61.35331 | 26973 ft | 465 kts | 189° |
| 2026-04-21 00:37 | 12.27984 | -61.35672 | 26970 ft | 465 kts | 189° |
| 2026-04-21 00:37 | 12.24746 | -61.36013 | 26969 ft | 466 kts | 190° |
| 2026-04-21 00:37 | 12.21523 | -61.36354 | 26969 ft | 466 kts | 189° |
| 2026-04-21 00:38 | 12.18293 | -61.36694 | 26965 ft | 466 kts | 189° |
| 2026-04-21 00:38 | 12.15054 | -61.37036 | 26964 ft | 466 kts | 189° |
| 2026-04-21 00:38 | 12.11796 | -61.37379 | 26961 ft | 467 kts | 189° |
| 2026-04-21 00:38 | 12.08551 | -61.37720 | 26955 ft | 466 kts | 189° |
| 2026-04-21 00:39 | 12.05350 | -61.38055 | 26949 ft | 459 kts | 189° |
| 2026-04-21 00:39 | 12.02177 | -61.38387 | 26949 ft | 458 kts | 189° |
| 2026-04-21 00:39 | 11.98996 | -61.38720 | 26945 ft | 450 kts | 189° |
| 2026-04-21 00:39 | 11.95937 | -61.39037 | 26932 ft | 431 kts | 190° |
| 2026-04-21 00:40 | 11.92989 | -61.39340 | 26737 ft | 418 kts | 189° |
| 2026-04-21 00:40 | 11.90155 | -61.39634 | 26393 ft | 411 kts | 189° |
| 2026-04-21 00:40 | 11.87247 | -61.39943 | 25900 ft | 420 kts | 189° |
| 2026-04-21 00:40 | 11.84333 | -61.40257 | 25334 ft | 425 kts | 189° |
| 2026-04-21 00:41 | 11.81403 | -61.40570 | 24753 ft | 422 kts | 189° |
| 2026-04-21 00:41 | 11.78497 | -61.40877 | 24171 ft | 419 kts | 188° |
| 2026-04-21 00:41 | 11.75600 | -61.41183 | 23592 ft | 416 kts | 188° |
| 2026-04-21 00:41 | 11.72698 | -61.41488 | 23014 ft | 414 kts | 188° |
| 2026-04-21 00:42 | 11.69837 | -61.41787 | 22433 ft | 412 kts | 188° |
| 2026-04-21 00:42 | 11.66991 | -61.42086 | 21872 ft | 411 kts | 188° |
| 2026-04-21 00:42 | 11.64156 | -61.42383 | 21301 ft | 409 kts | 188° |
| 2026-04-21 00:42 | 11.61328 | -61.42680 | 20721 ft | 408 kts | 187° |
| 2026-04-21 00:43 | 11.58484 | -61.42978 | 20135 ft | 406 kts | 187° |
| 2026-04-21 00:43 | 11.55677 | -61.43274 | 19551 ft | 404 kts | 188° |
| 2026-04-21 00:43 | 11.52892 | -61.43568 | 18969 ft | 402 kts | 188° |
| 2026-04-21 00:43 | 11.50136 | -61.43858 | 18391 ft | 399 kts | 188° |
| 2026-04-21 00:44 | 11.47364 | -61.44148 | 17810 ft | 396 kts | 188° |
| 2026-04-21 00:44 | 11.44649 | -61.44433 | 17241 ft | 393 kts | 188° |
| 2026-04-21 00:44 | 11.41938 | -61.44718 | 16670 ft | 390 kts | 188° |
| 2026-04-21 00:45 | 11.36573 | -61.45279 | 15533 ft | 384 kts | 187° |
| 2026-04-21 00:45 | 11.33927 | -61.45555 | 14966 ft | 381 kts | 187° |
| 2026-04-21 00:45 | 11.31289 | -61.45832 | 14398 ft | 378 kts | 187° |
| 2026-04-21 00:45 | 11.28675 | -61.46106 | 13837 ft | 375 kts | 186° |
| 2026-04-21 00:46 | 11.26095 | -61.46376 | 13278 ft | 372 kts | 186° |
| 2026-04-21 00:46 | 11.23508 | -61.46647 | 12713 ft | 369 kts | 186° |
| 2026-04-21 00:46 | 11.20970 | -61.46913 | 12158 ft | 366 kts | 186° |
| 2026-04-21 00:46 | 11.18463 | -61.47176 | 11610 ft | 363 kts | 186° |
| 2026-04-21 00:47 | 11.15937 | -61.47441 | 11057 ft | 360 kts | 186° |
| 2026-04-21 00:47 | 11.13446 | -61.47702 | 10549 ft | 355 kts | 186° |
| 2026-04-21 00:47 | 11.11017 | -61.47956 | 10293 ft | 343 kts | 186° |
| 2026-04-21 00:47 | 11.08707 | -61.48198 | 10188 ft | 328 kts | 185° |
| 2026-04-21 00:48 | 11.06474 | -61.48432 | 10042 ft | 315 kts | 186° |
| 2026-04-21 00:48 | 11.04280 | -61.48661 | 9665 ft | 312 kts | 185° |
| 2026-04-21 00:48 | 11.02128 | -61.48886 | 9255 ft | 310 kts | 185° |
| 2026-04-21 00:48 | 10.99987 | -61.49109 | 8871 ft | 308 kts | 185° |
| 2026-04-21 00:49 | 10.97847 | -61.49333 | 8494 ft | 305 kts | 185° |
| 2026-04-21 00:49 | 10.95758 | -61.49552 | 8122 ft | 302 kts | 185° |
| 2026-04-21 00:49 | 10.93675 | -61.49771 | 7756 ft | 299 kts | 185° |
| 2026-04-21 00:49 | 10.91612 | -61.49986 | 7386 ft | 294 kts | 185° |
| 2026-04-21 00:50 | 10.89586 | -61.50198 | 7025 ft | 289 kts | 184° |
| 2026-04-21 00:50 | 10.87582 | -61.50406 | 6673 ft | 284 kts | 184° |
| 2026-04-21 00:50 | 10.85652 | -61.50608 | 6343 ft | 279 kts | 184° |
| 2026-04-21 00:50 | 10.83797 | -61.50803 | 6019 ft | 274 kts | 184° |
| 2026-04-21 00:51 | 10.81918 | -61.50999 | 5686 ft | 270 kts | 184° |
| 2026-04-21 00:51 | 10.80041 | -61.51196 | 5350 ft | 267 kts | 184° |
| 2026-04-21 00:51 | 10.78191 | -61.51389 | 5012 ft | 267 kts | 184° |
| 2026-04-21 00:51 | 10.76338 | -61.51582 | 4676 ft | 265 kts | 183° |
| 2026-04-21 00:52 | 10.74486 | -61.51776 | 4336 ft | 264 kts | 183° |
| 2026-04-21 00:52 | 10.72659 | -61.51967 | 3997 ft | 263 kts | 183° |
| 2026-04-21 00:52 | 10.70839 | -61.52156 | 3659 ft | 262 kts | 183° |
| 2026-04-21 00:52 | 10.69030 | -61.52291 | 3320 ft | 259 kts | 179° |
| 2026-04-21 00:53 | 10.67221 | -61.52316 | 3064 ft | 256 kts | 176° |
| 2026-04-21 00:53 | 10.65449 | -61.52297 | 2824 ft | 254 kts | 175° |
| 2026-04-21 00:53 | 10.63682 | -61.52277 | 2580 ft | 250 kts | 175° |
| 2026-04-21 00:53 | 10.61960 | -61.52115 | 2333 ft | 242 kts | 163° |
| 2026-04-21 00:54 | 10.60508 | -61.51373 | 2088 ft | 234 kts | 132° |
| 2026-04-21 00:54 | 10.59695 | -61.49978 | 1850 ft | 227 kts | 104° |
| 2026-04-21 00:54 | 10.59493 | -61.48419 | 1723 ft | 223 kts | 90° |
| 2026-04-21 00:54 | 10.59491 | -61.46838 | 1700 ft | 220 kts | 88° |
| 2026-04-21 00:55 | 10.59505 | -61.45344 | 1699 ft | 205 kts | 89° |
| 2026-04-21 00:55 | 10.59507 | -61.43969 | 1698 ft | 180 kts | 89° |
| 2026-04-21 00:55 | 10.59508 | -61.42755 | 1507 ft | 166 kts | 89° |
| 2026-04-21 00:55 | 10.59511 | -61.41627 | 1286 ft | 151 kts | 89° |
| 2026-04-21 00:56 | 10.59516 | -61.40611 | 1103 ft | 140 kts | 89° |
| 2026-04-21 00:56 | 10.59521 | -61.39643 | 904 ft | 137 kts | 89° |
| 2026-04-21 00:56 | 10.59523 | -61.38672 | 723 ft | 138 kts | 89° |
| 2026-04-21 00:56 | 10.59525 | -61.37686 | 537 ft | 142 kts | 90° |
| 2026-04-21 00:57 | 10.59528 | -61.36667 | 354 ft | 144 kts | 90° |
| 2026-04-21 00:57 | 10.59530 | -61.35653 | 180 ft | 144 kts | 90° |
| 2026-04-21 00:57 | 10.59532 | -61.34638 | 63 ft | 136 kts | 90° |
| 2026-04-21 00:57 | 10.59532 | -61.33869 | 65 ft | 73 kts | 90° |
| 2026-04-21 00:58 | 10.59573 | -61.33520 | 69 ft | 42 kts | 59° |
| 2026-04-21 00:58 | 10.59680 | -61.33457 | 70 ft | 12 kts | 324° |
| 2026-04-21 00:58 | 10.59702 | -61.33537 | 69 ft | 12 kts | 265° |
| 2026-04-21 00:58 | 10.59697 | -61.33625 | 69 ft | 12 kts | 271° |
| 2026-04-21 00:59 | 10.59704 | -61.33708 | 68 ft | 11 kts | 298° |
| 2026-04-21 00:59 | 10.59774 | -61.33728 | 67 ft | 10 kts | 358° |
| 2026-04-21 00:59 | 10.59849 | -61.33731 | 68 ft | 10 kts | 0° |
| 2026-04-21 00:59 | 10.59905 | -61.33729 | 69 ft | 5 kts | 2° |
| 2026-04-21 01:00 | 10.59943 | -61.33731 | 69 ft | 5 kts | 339° |
| 2026-04-21 01:00 | 10.59964 | -61.33759 | 69 ft | 4 kts | 295° |
| 2026-04-21 01:00 | 10.59974 | -61.33786 | 69 ft | 0 kts | 290° |
| 2026-04-21 01:00 | 10.59976 | -61.33789 | 69 ft | 0 kts | 290° |